createdAt,value
2018-10-01T00:02:53.203Z,8.67
2018-10-01T00:07:56.353Z,10.73
2018-10-01T00:12:59.757Z,9.37
2018-10-01T00:18:02.954Z,7.80
2018-10-01T00:23:06.227Z,9.80
2018-10-01T00:28:09.436Z,5.63
2018-10-01T00:33:12.584Z,8.63
2018-10-01T00:38:15.936Z,10.67
2018-10-01T00:43:19.292Z,9.43
2018-10-01T00:48:22.443Z,6.93
2018-10-01T00:53:25.590Z,7.97
2018-10-01T00:58:28.735Z,9.43
2018-10-01T01:03:31.860Z,11.37
2018-10-01T01:08:35.041Z,7.27
2018-10-01T01:13:38.212Z,10.13
2018-10-01T01:18:41.426Z,9.28
2018-10-01T01:23:44.521Z,9.45
2018-10-01T01:28:47.688Z,11.97
2018-10-01T01:33:55.247Z,8.67
2018-10-01T01:38:59.533Z,5.93
2018-10-01T01:44:02.667Z,7.67
2018-10-01T01:49:13.638Z,16.13
2018-10-01T01:54:16.772Z,10.17
2018-10-01T01:59:19.980Z,7.70
2018-10-01T02:04:23.300Z,14.47
2018-10-01T02:09:29.048Z,11.57
2018-10-01T02:14:32.216Z,11.20
2018-10-01T02:19:35.368Z,15.73
2018-10-01T02:24:38.462Z,11.83
2018-10-01T02:29:41.584Z,18.47
2018-10-01T02:34:44.741Z,16.40
2018-10-01T02:39:47.928Z,13.53
2018-10-01T02:44:51.148Z,15.37
2018-10-01T02:49:54.280Z,25.40
2018-10-01T02:54:57.442Z,21.73
2018-10-01T03:00:00.633Z,19.17
2018-10-01T03:05:03.799Z,25.70
2018-10-01T03:10:07.082Z,21.27
2018-10-01T03:15:10.278Z,22.33
2018-10-01T03:20:13.395Z,22.80
2018-10-01T03:25:16.519Z,24.07
2018-10-01T03:30:19.671Z,25.20
2018-10-01T03:35:22.930Z,21.73
2018-10-01T03:40:26.157Z,23.43
2018-10-01T03:45:29.288Z,28.17
2018-10-01T03:50:32.403Z,30.67
2018-10-01T03:55:35.651Z,22.00
2018-10-01T04:00:38.835Z,28.93
2018-10-01T04:05:44.092Z,28.00
2018-10-01T04:10:47.645Z,22.83
2018-10-01T04:15:54.294Z,27.67
2018-10-01T04:21:10.468Z,25.23
2018-10-01T04:26:15.271Z,27.03
2018-10-01T04:31:16.961Z,24.87
2018-10-01T04:36:24.634Z,27.90
2018-10-01T04:41:26.738Z,24.17
2018-10-01T04:46:32.512Z,26.00
2018-10-01T04:51:41.764Z,29.07
2018-10-01T04:56:44.855Z,26.40
2018-10-01T05:01:57.119Z,26.20
2018-10-01T05:06:58.370Z,29.80
2018-10-01T05:12:01.838Z,28.80
2018-10-01T05:17:05.211Z,35.00
2018-10-01T05:22:08.398Z,30.77
2018-10-01T05:27:11.625Z,32.27
2018-10-01T05:32:14.754Z,28.07
2018-10-01T05:37:17.855Z,29.03
2018-10-01T05:42:21.037Z,29.93
2018-10-01T05:47:24.182Z,25.63
2018-10-01T05:52:27.337Z,28.43
2018-10-01T05:57:30.481Z,26.30
2018-10-01T06:02:33.599Z,23.50
2018-10-01T06:07:36.849Z,29.90
2018-10-01T06:12:39.980Z,30.20
2018-10-01T06:17:43.168Z,30.37
2018-10-01T06:22:46.295Z,35.07
2018-10-01T06:27:49.422Z,27.27
2018-10-01T06:32:52.614Z,32.50
2018-10-01T06:37:55.868Z,31.23
2018-10-01T06:42:59.007Z,27.90
2018-10-01T06:48:02.202Z,29.30
2018-10-01T06:53:05.923Z,28.73
2018-10-01T06:58:09.106Z,23.67
2018-10-01T07:03:12.297Z,22.20
2018-10-01T07:08:15.482Z,30.67
2018-10-01T07:13:18.728Z,23.50
2018-10-01T07:18:21.890Z,21.63
2018-10-01T07:23:25.179Z,21.27
2018-10-01T07:28:28.269Z,24.10
2018-10-01T07:33:31.391Z,25.27
2018-10-01T07:38:34.593Z,30.27
2018-10-01T07:43:37.937Z,28.90
2018-10-01T07:48:41.438Z,27.60
2018-10-01T07:53:44.666Z,30.55
2018-10-01T07:58:47.810Z,35.25
2018-10-01T08:03:50.985Z,37.90
2018-10-01T08:08:54.161Z,25.70
2018-10-01T08:13:57.346Z,27.73
2018-10-01T08:19:00.522Z,24.60
2018-10-01T08:24:03.852Z,23.77
2018-10-01T08:29:07.034Z,25.13
2018-10-01T08:34:10.314Z,22.97
2018-10-01T08:39:14.792Z,18.83
2018-10-01T08:44:18.297Z,18.50
2018-10-01T08:49:49.362Z,17.53
2018-10-01T08:54:52.516Z,16.63
2018-10-01T08:59:55.670Z,14.47
2018-10-01T09:04:58.883Z,19.43
2018-10-01T09:10:02.057Z,12.47
2018-10-01T09:15:05.554Z,11.20
2018-10-01T09:20:08.910Z,11.83
2018-10-01T09:25:12.021Z,16.73
2018-10-01T09:30:15.214Z,11.57
2018-10-01T09:35:18.417Z,9.77
2018-10-01T09:40:21.634Z,11.13
2018-10-01T09:45:24.834Z,15.57
2018-10-01T09:50:28.363Z,10.13
2018-10-01T09:55:31.442Z,11.97
2018-10-01T10:01:02.578Z,14.13
2018-10-01T10:06:05.947Z,12.73
2018-10-01T10:11:09.381Z,16.37
2018-10-01T10:16:12.729Z,14.47
2018-10-01T10:21:15.724Z,9.53
2018-10-01T10:26:18.936Z,9.37
2018-10-01T10:31:22.053Z,9.07
2018-10-01T10:36:25.242Z,8.97
2018-10-01T10:41:28.399Z,9.30
2018-10-01T10:46:31.639Z,9.73
2018-10-01T10:51:35.311Z,8.73
2018-10-01T10:56:38.506Z,8.53
2018-10-01T11:01:41.676Z,4.70
2018-10-01T11:06:44.772Z,3.93
2018-10-01T11:11:47.932Z,4.97
2018-10-01T11:16:51.006Z,3.53
2018-10-01T11:21:54.153Z,8.98
2018-10-01T11:26:57.265Z,2.57
2018-10-01T11:32:00.506Z,5.55
2018-10-01T11:37:03.524Z,4.40
2018-10-01T11:42:06.689Z,4.30
2018-10-01T11:47:09.854Z,5.03
2018-10-01T11:52:12.993Z,4.20
2018-10-01T11:57:16.211Z,4.72
2018-10-01T12:02:19.332Z,2.67
2018-10-01T12:07:22.537Z,3.65
2018-10-01T12:12:25.690Z,3.37
2018-10-01T12:17:29.068Z,3.92
2018-10-01T12:22:32.220Z,3.08
2018-10-01T12:27:35.392Z,3.15
2018-10-01T12:32:38.459Z,4.40
2018-10-01T12:37:41.603Z,4.67
2018-10-01T12:42:44.714Z,3.87
2018-10-01T12:47:47.785Z,4.00
2018-10-01T12:52:51.039Z,4.08
2018-10-01T12:57:54.160Z,3.25
2018-10-01T13:02:57.297Z,5.12
2018-10-01T13:08:01.150Z,4.47
2018-10-01T13:13:04.280Z,3.85
2018-10-01T13:18:07.427Z,2.77
2018-10-01T13:23:10.535Z,6.50
2018-10-01T13:28:13.620Z,5.30
2018-10-01T13:33:16.774Z,3.87
2018-10-01T13:38:20.170Z,3.20
2018-10-01T13:43:23.321Z,3.65
2018-10-01T13:48:26.500Z,5.23
2018-10-01T13:53:29.630Z,3.20
2018-10-01T13:58:32.817Z,3.67
2018-10-01T14:03:35.949Z,6.13
2018-10-01T14:08:39.081Z,3.93
2018-10-01T14:13:42.192Z,4.03
2018-10-01T14:18:45.302Z,2.43
2018-10-01T14:23:48.404Z,0.80
2018-10-01T14:28:51.541Z,1.97
2018-10-01T14:33:54.676Z,2.83
2018-10-01T14:38:57.782Z,0.83
2018-10-01T14:44:00.922Z,1.53
2018-10-01T14:49:04.119Z,3.63
2018-10-01T14:54:07.360Z,3.37
2018-10-01T14:59:11.211Z,2.00
2018-10-01T15:04:14.352Z,3.03
2018-10-01T15:09:17.481Z,4.10
2018-10-01T15:14:20.595Z,3.07
2018-10-01T15:19:23.741Z,4.00
2018-10-01T15:24:26.922Z,3.70
2018-10-01T15:29:30.035Z,4.07
2018-10-01T15:34:33.175Z,5.10
2018-10-01T15:39:36.290Z,4.63
2018-10-01T15:44:39.385Z,2.07
2018-10-01T15:49:42.661Z,1.87
2018-10-01T15:54:46.041Z,3.93
2018-10-01T15:59:49.182Z,3.40
2018-10-01T16:04:52.311Z,1.73
2018-10-01T16:09:55.477Z,2.93
2018-10-01T16:14:58.598Z,4.83
2018-10-01T16:20:01.731Z,5.43
2018-10-01T16:25:05.050Z,5.13
2018-10-01T16:30:08.602Z,3.10
2018-10-01T16:35:11.912Z,3.17
2018-10-01T16:40:15.138Z,3.67
2018-10-01T16:45:18.272Z,4.57
2018-10-01T16:50:21.430Z,3.80
2018-10-01T16:55:24.560Z,7.43
2018-10-01T17:00:27.733Z,4.10
2018-10-01T17:05:30.875Z,4.87
2018-10-01T17:10:33.988Z,3.90
2018-10-01T17:15:37.102Z,8.67
2018-10-01T17:20:40.252Z,3.57
2018-10-01T17:25:43.412Z,3.07
2018-10-01T17:30:46.535Z,8.03
2018-10-01T17:35:49.668Z,6.80
2018-10-01T17:40:52.816Z,7.13
2018-10-01T17:45:55.894Z,10.50
2018-10-01T17:50:59.005Z,7.30
2018-10-01T17:56:02.145Z,7.70
2018-10-01T18:01:05.260Z,5.22
2018-10-01T18:06:08.499Z,11.00
2018-10-01T18:11:11.578Z,11.50
2018-10-01T18:16:14.694Z,7.53
2018-10-01T18:21:17.798Z,8.47
2018-10-01T18:26:20.909Z,6.70
2018-10-01T18:31:24.108Z,5.63
2018-10-01T18:36:27.302Z,3.97
2018-10-01T18:41:30.452Z,5.03
2018-10-01T18:46:33.565Z,7.07
2018-10-01T18:51:36.669Z,7.08
2018-10-01T18:56:39.817Z,6.55
2018-10-01T19:01:42.994Z,10.93
2018-10-01T19:06:46.116Z,5.87
2018-10-01T19:11:49.251Z,6.87
2018-10-01T19:16:52.362Z,8.53
2018-10-01T19:21:55.915Z,5.10
2018-10-01T19:26:59.112Z,5.50
2018-10-01T19:32:02.211Z,9.87
2018-10-01T19:37:05.281Z,8.73
2018-10-01T19:42:08.491Z,10.43
2018-10-01T19:47:11.662Z,8.80
2018-10-01T19:52:14.723Z,8.73
2018-10-01T19:57:17.841Z,12.47
2018-10-01T20:02:20.952Z,7.20
2018-10-01T20:07:24.079Z,8.93
2018-10-01T20:12:27.197Z,9.97
2018-10-01T20:17:30.423Z,10.40
2018-10-01T20:22:36.652Z,5.70
2018-10-01T20:27:39.851Z,11.07
2018-10-01T20:32:42.936Z,11.27
2018-10-01T20:37:46.141Z,10.45
2018-10-01T20:42:49.353Z,9.73
2018-10-01T20:47:52.699Z,9.90
2018-10-01T20:52:55.882Z,5.80
2018-10-01T20:57:58.881Z,5.73
2018-10-01T21:03:02.019Z,7.30
2018-10-01T21:08:05.218Z,13.13
2018-10-01T21:13:08.320Z,7.67
2018-10-01T21:18:11.508Z,11.10
2018-10-01T21:23:14.639Z,8.58
2018-10-01T21:28:17.715Z,12.13
2018-10-01T21:33:20.915Z,9.13
2018-10-01T21:38:24.064Z,6.97
2018-10-01T21:43:27.191Z,12.77
2018-10-01T21:48:30.312Z,9.77
2018-10-01T21:53:33.505Z,12.37
2018-10-01T21:58:36.628Z,10.07
2018-10-01T22:03:39.720Z,10.97
2018-10-01T22:08:43.186Z,13.27
2018-10-01T22:13:46.363Z,10.23
2018-10-01T22:18:49.480Z,10.27
2018-10-01T22:23:55.330Z,12.47
2018-10-01T22:28:58.460Z,10.43
2018-10-01T22:34:01.633Z,12.53
2018-10-01T22:39:05.492Z,13.58
2018-10-01T22:44:08.776Z,14.70
2018-10-01T22:49:11.972Z,14.33
2018-10-01T22:54:15.514Z,12.07
2018-10-01T22:59:18.574Z,17.30
2018-10-01T23:04:21.684Z,14.13
2018-10-01T23:09:24.813Z,21.13
2018-10-01T23:14:27.925Z,16.13
2018-10-01T23:19:31.035Z,17.47
2018-10-01T23:24:34.194Z,11.57
2018-10-01T23:29:37.351Z,12.63
2018-10-01T23:34:40.435Z,17.40
2018-10-01T23:39:43.583Z,12.33
2018-10-01T23:44:46.701Z,15.00
2018-10-01T23:49:49.851Z,15.98
2018-10-01T23:54:58.256Z,16.17
